createdAt,value
2018-12-11T00:00:20.801Z,5.50
2018-12-11T00:02:49.086Z,5.13
2018-12-11T00:05:17.367Z,5.80
2018-12-11T00:07:45.609Z,6.23
2018-12-11T00:10:13.946Z,6.27
2018-12-11T00:12:42.180Z,5.95
2018-12-11T00:15:10.812Z,6.93
2018-12-11T00:17:39.114Z,5.30
2018-12-11T00:20:07.439Z,7.17
2018-12-11T00:22:35.736Z,6.20
2018-12-11T00:25:04.169Z,5.97
2018-12-11T00:27:32.420Z,5.50
2018-12-11T00:30:00.688Z,8.77
2018-12-11T00:32:28.993Z,9.20
2018-12-11T00:34:57.196Z,6.80
2018-12-11T00:37:25.404Z,5.67
2018-12-11T00:39:53.779Z,6.50
2018-12-11T00:42:22.048Z,7.23
2018-12-11T00:44:50.350Z,9.63
2018-12-11T00:47:18.553Z,5.77
2018-12-11T00:49:47.782Z,7.50
2018-12-11T00:52:16.085Z,6.07
2018-12-11T00:54:44.329Z,6.90
2018-12-11T00:57:12.589Z,10.23
2018-12-11T00:59:40.814Z,8.23
2018-12-11T01:02:09.036Z,9.40
2018-12-11T01:04:37.287Z,7.13
2018-12-11T01:07:05.728Z,10.40
2018-12-11T01:09:33.932Z,8.07
2018-12-11T01:12:02.227Z,7.40
2018-12-11T01:14:30.577Z,7.70
2018-12-11T01:16:58.913Z,7.73
2018-12-11T01:19:27.198Z,7.50
2018-12-11T01:21:55.403Z,9.37
2018-12-11T01:24:23.805Z,6.33
2018-12-11T01:26:52.082Z,6.37
2018-12-11T01:29:20.324Z,9.37
2018-12-11T01:31:48.593Z,8.77
2018-12-11T01:34:16.814Z,9.80
2018-12-11T01:36:45.047Z,8.87
2018-12-11T01:39:13.354Z,13.33
2018-12-11T01:41:41.546Z,7.67
2018-12-11T01:44:09.951Z,7.57
2018-12-11T01:46:38.436Z,6.97
2018-12-11T01:49:06.829Z,8.53
2018-12-11T01:51:35.108Z,7.40
2018-12-11T01:54:03.301Z,9.00
2018-12-11T01:56:31.646Z,7.00
2018-12-11T01:59:00.768Z,6.57
2018-12-11T02:01:29.170Z,16.50
2018-12-11T02:03:57.579Z,14.07
2018-12-11T02:06:25.969Z,10.83
2018-12-11T02:08:54.362Z,14.53
2018-12-11T02:11:22.598Z,8.30
2018-12-11T02:13:50.981Z,7.60
2018-12-11T02:16:19.163Z,8.33
2018-12-11T02:18:48.172Z,7.17
2018-12-11T02:21:16.404Z,18.27
2018-12-11T02:23:44.652Z,24.97
2018-12-11T02:26:12.953Z,10.97
2018-12-11T02:28:41.262Z,8.77
2018-12-11T02:31:09.502Z,10.47
2018-12-11T02:33:37.843Z,8.70
2018-12-11T02:36:06.052Z,12.77
2018-12-11T02:38:34.290Z,10.17
2018-12-11T02:41:02.518Z,7.03
2018-12-11T02:43:30.759Z,9.07
2018-12-11T02:45:59.031Z,5.67
2018-12-11T02:48:27.247Z,5.83
2018-12-11T02:50:55.630Z,10.13
2018-12-11T02:53:23.899Z,6.93
2018-12-11T02:55:56.292Z,7.70
2018-12-11T02:58:29.286Z,7.60
2018-12-11T03:00:59.221Z,10.73
2018-12-11T03:03:29.987Z,10.87
2018-12-11T03:05:59.931Z,11.03
2018-12-11T03:08:28.772Z,15.33
2018-12-11T03:10:57.267Z,10.63
2018-12-11T03:13:25.925Z,10.57
2018-12-11T03:15:54.221Z,10.73
2018-12-11T03:18:22.529Z,12.23
2018-12-11T03:20:50.956Z,7.93
2018-12-11T03:23:19.257Z,11.30
2018-12-11T03:25:49.458Z,8.10
2018-12-11T03:28:19.357Z,9.83
2018-12-11T03:30:50.376Z,7.93
2018-12-11T03:33:20.110Z,11.30
2018-12-11T03:35:53.914Z,8.37
2018-12-11T03:38:23.342Z,8.57
2018-12-11T03:40:55.389Z,9.17
2018-12-11T03:43:27.104Z,13.03
2018-12-11T03:45:55.601Z,11.63
2018-12-11T03:48:23.888Z,9.93
2018-12-11T03:50:52.272Z,9.47
2018-12-11T03:53:23.312Z,12.07
2018-12-11T03:55:51.852Z,13.30
2018-12-11T03:58:20.586Z,16.50
2018-12-11T04:00:50.356Z,12.33
2018-12-11T04:03:18.723Z,13.00
2018-12-11T04:05:49.217Z,13.87
2018-12-11T04:08:18.173Z,16.60
2018-12-11T04:10:49.267Z,9.90
2018-12-11T04:13:20.303Z,13.77
2018-12-11T04:15:48.660Z,16.77
2018-12-11T04:18:16.881Z,13.33
2018-12-11T04:20:45.137Z,15.40
2018-12-11T04:23:13.529Z,13.77
2018-12-11T04:25:41.794Z,12.40
2018-12-11T04:28:10.066Z,12.70
2018-12-11T04:30:38.596Z,11.10
2018-12-11T04:33:06.825Z,10.00
2018-12-11T04:35:35.077Z,9.70
2018-12-11T04:38:03.925Z,11.97
2018-12-11T04:40:32.208Z,11.27
2018-12-11T04:43:00.445Z,12.90
2018-12-11T04:45:28.741Z,12.37
2018-12-11T04:47:57.080Z,17.43
2018-12-11T04:50:26.463Z,16.50
2018-12-11T04:52:54.676Z,15.43
2018-12-11T04:55:24.312Z,15.67
2018-12-11T04:57:52.873Z,13.90
2018-12-11T05:00:21.126Z,20.50
2018-12-11T05:02:49.406Z,13.30
2018-12-11T05:05:17.644Z,12.83
2018-12-11T05:07:46.022Z,18.77
2018-12-11T05:10:14.370Z,17.47
2018-12-11T05:12:42.897Z,13.47
2018-12-11T05:15:11.165Z,19.77
2018-12-11T05:17:39.388Z,17.03
2018-12-11T05:20:07.826Z,12.70
2018-12-11T05:22:36.099Z,13.73
2018-12-11T05:25:04.928Z,20.00
2018-12-11T05:27:33.403Z,16.57
2018-12-11T05:30:01.652Z,19.57
2018-12-11T05:32:30.536Z,18.03
2018-12-11T05:34:58.837Z,23.00
2018-12-11T05:37:27.850Z,20.50
2018-12-11T05:39:56.151Z,22.60
2018-12-11T05:42:24.397Z,22.97
2018-12-11T05:44:52.979Z,16.10
2018-12-11T05:47:21.221Z,20.50
2018-12-11T05:49:49.466Z,24.50
2018-12-11T05:52:18.319Z,17.53
2018-12-11T05:54:46.708Z,22.97
2018-12-11T05:57:15.400Z,18.07
2018-12-11T05:59:43.712Z,18.23
2018-12-11T06:02:12.003Z,17.00
2018-12-11T06:04:40.810Z,16.00
2018-12-11T06:07:09.184Z,20.67
2018-12-11T06:09:37.479Z,25.43
2018-12-11T06:12:06.265Z,23.40
2018-12-11T06:14:34.527Z,44.40
2018-12-11T06:17:02.839Z,21.33
2018-12-11T06:19:34.071Z,18.27
2018-12-11T06:22:04.680Z,14.90
2018-12-11T06:24:32.966Z,16.90
2018-12-11T06:27:01.777Z,16.83
2018-12-11T06:29:30.123Z,17.43
2018-12-11T06:31:58.462Z,15.93
2018-12-11T06:34:27.619Z,14.80
2018-12-11T06:37:02.648Z,16.57
2018-12-11T06:39:31.238Z,16.67
2018-12-11T06:42:00.132Z,16.23
2018-12-11T06:44:28.536Z,16.23
2018-12-11T06:46:56.756Z,20.57
2018-12-11T06:49:25.048Z,21.37
2018-12-11T06:51:53.414Z,18.73
2018-12-11T06:54:21.700Z,14.63
2018-12-11T06:56:51.802Z,21.13
2018-12-11T06:59:20.084Z,22.10
2018-12-11T07:01:48.450Z,13.53
2018-12-11T07:04:16.783Z,15.03
2018-12-11T07:06:45.726Z,17.07
2018-12-11T07:09:14.033Z,15.57
2018-12-11T07:11:42.402Z,14.73
2018-12-11T07:14:11.416Z,13.30
2018-12-11T07:16:40.913Z,13.47
2018-12-11T07:19:09.161Z,22.27
2018-12-11T07:21:37.430Z,16.63
2018-12-11T07:24:05.641Z,16.90
2018-12-11T07:26:33.850Z,14.00
2018-12-11T07:29:02.500Z,15.07
2018-12-11T07:31:30.790Z,16.00
2018-12-11T07:33:59.017Z,16.33
2018-12-11T07:36:27.269Z,20.77
2018-12-11T07:38:55.566Z,26.67
2018-12-11T07:41:24.273Z,19.97
2018-12-11T07:43:52.773Z,21.30
2018-12-11T07:46:21.181Z,20.10
2018-12-11T07:48:49.455Z,26.10
2018-12-11T07:51:17.748Z,23.67
2018-12-11T07:53:46.464Z,24.87
2018-12-11T07:56:14.750Z,22.80
2018-12-11T07:58:43.025Z,18.87
2018-12-11T08:01:11.288Z,18.73
2018-12-11T08:03:39.601Z,21.57
2018-12-11T08:06:08.138Z,18.43
2018-12-11T08:08:36.988Z,19.80
2018-12-11T08:11:05.285Z,16.37
2018-12-11T08:13:33.527Z,21.50
2018-12-11T08:16:01.762Z,16.83
2018-12-11T08:18:30.796Z,19.03
2018-12-11T08:20:59.065Z,19.87
2018-12-11T08:23:27.327Z,20.50
2018-12-11T08:25:55.684Z,22.53
2018-12-11T08:28:24.077Z,18.67
2018-12-11T08:30:52.849Z,24.33
2018-12-11T08:33:21.743Z,26.20
2018-12-11T08:35:50.153Z,22.13
2018-12-11T08:38:18.667Z,24.50
2018-12-11T08:40:46.916Z,24.50
2018-12-11T08:43:15.603Z,17.90
2018-12-11T08:45:44.113Z,19.60
2018-12-11T08:48:12.386Z,17.13
2018-12-11T08:50:40.661Z,20.83
2018-12-11T08:53:08.981Z,21.50
2018-12-11T08:55:37.658Z,18.70
2018-12-11T08:58:06.265Z,16.87
2018-12-11T09:00:34.493Z,17.97
2018-12-11T09:03:03.197Z,22.77
2018-12-11T09:05:31.522Z,23.40
2018-12-11T09:07:59.849Z,22.20
2018-12-11T09:10:28.056Z,25.00
2018-12-11T09:12:56.474Z,20.53
2018-12-11T09:15:25.328Z,23.47
2018-12-11T09:17:53.535Z,20.87
2018-12-11T09:20:22.437Z,18.90
2018-12-11T09:22:50.790Z,21.83
2018-12-11T09:25:18.991Z,23.20
2018-12-11T09:27:47.205Z,23.23
2018-12-11T09:30:15.426Z,21.60
2018-12-11T09:32:44.249Z,25.37
2018-12-11T09:35:12.471Z,29.90
2018-12-11T09:37:41.749Z,22.57
2018-12-11T09:40:10.045Z,22.87
2018-12-11T09:42:39.124Z,24.13
2018-12-11T09:45:08.527Z,19.53
2018-12-11T09:47:36.779Z,21.93
2018-12-11T09:50:05.495Z,18.60
2018-12-11T09:52:34.201Z,19.17
2018-12-11T09:55:02.578Z,20.30
2018-12-11T09:57:31.509Z,16.87
2018-12-11T10:00:05.123Z,16.83
2018-12-11T10:02:33.482Z,15.97
2018-12-11T10:05:03.316Z,15.53
2018-12-11T10:07:31.561Z,13.80
2018-12-11T10:09:59.892Z,14.93
2018-12-11T10:12:28.349Z,17.97
2018-12-11T10:14:57.312Z,14.40
2018-12-11T10:17:25.900Z,13.97
2018-12-11T10:19:54.168Z,15.67
2018-12-11T10:22:22.440Z,13.90
2018-12-11T10:24:51.454Z,15.27
2018-12-11T10:27:20.313Z,16.87
2018-12-11T10:29:51.943Z,18.47
2018-12-11T10:32:23.554Z,15.90
2018-12-11T10:34:53.066Z,14.87
2018-12-11T10:37:21.373Z,16.00
2018-12-11T10:39:49.549Z,17.20
2018-12-11T10:42:17.862Z,15.30
2018-12-11T10:44:46.140Z,16.03
2018-12-11T10:47:15.288Z,16.23
2018-12-11T10:49:43.504Z,20.30
2018-12-11T10:52:11.782Z,16.67
2018-12-11T10:54:40.072Z,16.27
2018-12-11T10:57:08.333Z,16.80
2018-12-11T10:59:36.759Z,14.47
2018-12-11T11:02:10.561Z,16.83
2018-12-11T11:04:38.820Z,14.60
2018-12-11T11:07:07.068Z,17.43
2018-12-11T11:09:35.246Z,15.63
2018-12-11T11:12:03.520Z,18.60
2018-12-11T11:14:31.807Z,15.50
2018-12-11T11:17:00.192Z,15.27
2018-12-11T11:19:28.438Z,15.67
2018-12-11T11:21:56.624Z,14.73
2018-12-11T11:24:24.805Z,15.90
2018-12-11T11:26:53.057Z,16.67
2018-12-11T11:29:21.264Z,20.10
2018-12-11T11:31:49.507Z,15.87
2018-12-11T11:34:17.693Z,13.93
2018-12-11T11:36:45.876Z,14.90
2018-12-11T11:39:14.129Z,16.30
2018-12-11T11:41:42.772Z,13.60
2018-12-11T11:44:10.949Z,13.23
2018-12-11T11:46:39.162Z,16.87
2018-12-11T11:49:07.365Z,16.33
2018-12-11T11:51:35.611Z,15.90
2018-12-11T11:54:03.817Z,13.13
2018-12-11T11:56:32.082Z,11.10
2018-12-11T11:59:00.253Z,12.87
2018-12-11T12:01:28.614Z,12.37
2018-12-11T12:03:56.983Z,12.67
2018-12-11T12:06:27.083Z,11.20
2018-12-11T12:08:59.345Z,10.50
2018-12-11T12:11:25.499Z,9.80
2018-12-11T12:13:53.688Z,11.67
2018-12-11T12:16:21.863Z,10.17
2018-12-11T12:18:50.500Z,10.80
2018-12-11T12:21:18.702Z,11.47
2018-12-11T12:23:46.859Z,8.83
2018-12-11T12:26:15.111Z,13.53
2018-12-11T12:28:43.279Z,15.27
2018-12-11T12:31:12.285Z,10.40
2018-12-11T12:33:40.495Z,10.53
2018-12-11T12:36:08.664Z,9.80
2018-12-11T12:38:36.853Z,9.83
2018-12-11T12:41:04.998Z,8.47
2018-12-11T12:43:33.559Z,6.97
2018-12-11T12:46:01.761Z,8.47
2018-12-11T12:48:29.932Z,8.93
2018-12-11T12:50:58.184Z,8.97
2018-12-11T12:53:26.385Z,9.13
2018-12-11T12:55:54.731Z,8.50
2018-12-11T12:58:22.939Z,10.33
2018-12-11T13:00:51.516Z,6.80
2018-12-11T13:03:19.902Z,9.97
2018-12-11T13:05:48.088Z,4.40
2018-12-11T13:08:16.917Z,6.60
2018-12-11T13:10:45.065Z,5.70
2018-12-11T13:13:13.236Z,6.70
2018-12-11T13:15:41.493Z,5.20
2018-12-11T13:18:09.664Z,14.70
2018-12-11T13:20:38.725Z,7.90
2018-12-11T13:23:06.998Z,4.73
2018-12-11T13:25:35.167Z,4.00
2018-12-11T13:28:03.334Z,8.50
2018-12-11T13:30:31.512Z,6.70
2018-12-11T13:32:59.716Z,7.28
2018-12-11T13:35:27.966Z,3.77
2018-12-11T13:37:56.154Z,4.70
2018-12-11T13:40:24.618Z,5.70
2018-12-11T13:42:52.892Z,5.53
2018-12-11T13:45:21.334Z,5.63
2018-12-11T13:47:49.643Z,3.53
2018-12-11T13:50:17.912Z,5.47
2018-12-11T13:52:46.085Z,4.73
2018-12-11T13:55:14.254Z,11.73
2018-12-11T13:57:42.526Z,5.50
2018-12-11T14:00:10.774Z,5.80
2018-12-11T14:02:40.051Z,4.10
2018-12-11T14:05:08.400Z,5.33
2018-12-11T14:07:36.587Z,4.73
2018-12-11T14:10:05.526Z,4.00
2018-12-11T14:12:33.685Z,4.17
2018-12-11T14:15:01.855Z,5.13
2018-12-11T14:17:30.147Z,4.40
2018-12-11T14:19:58.308Z,5.53
2018-12-11T14:22:26.511Z,5.83
2018-12-11T14:24:54.668Z,5.73
2018-12-11T14:27:22.826Z,8.50
2018-12-11T14:29:51.097Z,4.57
2018-12-11T14:32:19.386Z,2.87
2018-12-11T14:34:47.872Z,6.33
2018-12-11T14:37:16.166Z,4.20
2018-12-11T14:39:44.428Z,8.93
2018-12-11T14:42:12.596Z,5.97
2018-12-11T14:44:40.842Z,3.80
2018-12-11T14:47:09.494Z,5.90
2018-12-11T14:49:37.710Z,7.53
2018-12-11T14:52:05.870Z,5.77
2018-12-11T14:54:34.034Z,6.50
2018-12-11T14:57:02.222Z,3.50
2018-12-11T14:59:30.476Z,3.58
2018-12-11T15:01:58.771Z,12.17
2018-12-11T15:04:27.038Z,4.17
2018-12-11T15:06:55.699Z,4.60
2018-12-11T15:09:29.399Z,4.53
2018-12-11T15:11:57.584Z,5.03
2018-12-11T15:14:25.740Z,7.40
2018-12-11T15:16:53.890Z,3.37
2018-12-11T15:19:22.404Z,5.23
2018-12-11T15:21:50.549Z,3.63
2018-12-11T15:24:18.706Z,4.07
2018-12-11T15:26:47.261Z,4.17
2018-12-11T15:29:15.507Z,4.90
2018-12-11T15:31:43.658Z,6.93
2018-12-11T15:34:12.469Z,3.30
2018-12-11T15:36:40.618Z,5.20
2018-12-11T15:39:08.827Z,2.90
2018-12-11T15:41:36.976Z,3.60
2018-12-11T15:44:05.232Z,4.83
2018-12-11T15:46:33.463Z,3.87
2018-12-11T15:49:01.615Z,8.50
2018-12-11T15:51:29.882Z,5.80
2018-12-11T15:53:58.092Z,2.97
2018-12-11T15:56:26.235Z,4.43
2018-12-11T15:58:54.393Z,3.77
2018-12-11T16:01:22.572Z,4.23
2018-12-11T16:03:51.937Z,4.17
2018-12-11T16:06:20.151Z,4.50
2018-12-11T16:08:48.322Z,9.83
2018-12-11T16:11:16.502Z,3.43
2018-12-11T16:13:45.945Z,2.37
2018-12-11T16:16:14.126Z,3.50
2018-12-11T16:18:42.300Z,5.30
2018-12-11T16:21:10.493Z,4.27
2018-12-11T16:23:38.668Z,3.77
2018-12-11T16:26:06.850Z,3.23
2018-12-11T16:28:35.066Z,4.20
2018-12-11T16:31:03.240Z,3.63
2018-12-11T16:33:31.412Z,2.53
2018-12-11T16:36:00.066Z,3.97
2018-12-11T16:38:28.378Z,4.17
2018-12-11T16:40:56.699Z,3.10
2018-12-11T16:43:26.313Z,5.03
2018-12-11T16:45:54.792Z,3.00
2018-12-11T16:48:22.991Z,3.97
2018-12-11T16:50:51.901Z,6.23
2018-12-11T16:53:20.102Z,4.43
2018-12-11T16:55:48.389Z,7.20
2018-12-11T16:58:17.030Z,4.13
2018-12-11T17:00:45.213Z,6.23
2018-12-11T17:03:13.551Z,4.73
2018-12-11T17:05:41.747Z,5.00
2018-12-11T17:08:10.001Z,7.20
2018-12-11T17:10:39.336Z,7.80
2018-12-11T17:13:07.653Z,9.57
2018-12-11T17:15:36.221Z,29.40
2018-12-11T17:18:05.577Z,21.30
2018-12-11T17:20:34.854Z,27.57
2018-12-11T17:23:03.126Z,21.67
2018-12-11T17:25:31.746Z,11.20
2018-12-11T17:28:00.136Z,10.60
2018-12-11T17:30:28.469Z,9.60
2018-12-11T17:32:56.785Z,16.27
2018-12-11T17:35:25.271Z,13.00
2018-12-11T17:37:53.505Z,14.17
2018-12-11T17:40:21.871Z,12.23
2018-12-11T17:42:50.117Z,10.97
2018-12-11T17:45:18.299Z,15.57
2018-12-11T17:47:46.535Z,16.77
2018-12-11T17:50:14.854Z,12.03
2018-12-11T17:52:43.069Z,7.87
2018-12-11T17:55:12.069Z,5.60
2018-12-11T17:57:40.280Z,6.07
2018-12-11T18:00:09.722Z,6.43
2018-12-11T18:02:39.565Z,5.47
2018-12-11T18:05:07.987Z,6.63
2018-12-11T18:07:36.352Z,7.93
2018-12-11T18:10:06.301Z,13.70
2018-12-11T18:12:34.576Z,13.27
2018-12-11T18:15:02.825Z,10.00
2018-12-11T18:17:31.011Z,10.23
2018-12-11T18:19:59.825Z,13.30
2018-12-11T18:22:28.168Z,13.17
2018-12-11T18:24:56.424Z,15.50
2018-12-11T18:27:24.650Z,16.27
2018-12-11T18:29:52.830Z,13.23
2018-12-11T18:32:25.137Z,11.03
2018-12-11T18:34:52.072Z,11.87
2018-12-11T18:37:20.648Z,16.40
2018-12-11T18:39:49.517Z,19.27
2018-12-11T18:42:17.761Z,23.53
2018-12-11T18:44:46.114Z,15.50
2018-12-11T18:47:14.321Z,16.33
2018-12-11T18:49:42.571Z,24.40
2018-12-11T18:52:14.116Z,15.83
2018-12-11T18:54:42.321Z,17.27
2018-12-11T18:57:10.680Z,23.10
2018-12-11T18:59:38.995Z,13.50
2018-12-11T19:02:07.205Z,24.70
2018-12-11T19:04:35.512Z,29.13
2018-12-11T19:07:04.326Z,22.23
2018-12-11T19:09:32.843Z,19.23
2018-12-11T19:12:01.116Z,18.43
2018-12-11T19:14:29.424Z,18.27
2018-12-11T19:16:57.608Z,21.73
2018-12-11T19:19:26.501Z,15.27
2018-12-11T19:21:54.672Z,18.53
2018-12-11T19:24:28.545Z,14.70
2018-12-11T19:26:56.845Z,15.07
2018-12-11T19:29:25.129Z,16.87
2018-12-11T19:31:53.881Z,17.83
2018-12-11T19:34:22.119Z,18.40
2018-12-11T19:36:50.344Z,15.80
2018-12-11T19:39:18.692Z,13.80
2018-12-11T19:41:46.936Z,11.90
2018-12-11T19:44:15.344Z,8.60
2018-12-11T19:46:43.609Z,16.20
2018-12-11T19:49:12.830Z,16.30
2018-12-11T19:51:41.128Z,10.60
2018-12-11T19:54:09.556Z,11.43
2018-12-11T19:56:37.807Z,11.93
2018-12-11T19:59:06.066Z,14.57
2018-12-11T20:01:34.364Z,12.37
2018-12-11T20:04:03.196Z,10.70
2018-12-11T20:06:31.396Z,10.73
2018-12-11T20:08:59.951Z,13.63
2018-12-11T20:11:28.337Z,13.53
2018-12-11T20:13:57.042Z,12.97
2018-12-11T20:16:25.552Z,10.43
2018-12-11T20:18:53.731Z,12.13
2018-12-11T20:21:21.985Z,9.93
2018-12-11T20:23:50.178Z,10.30
2018-12-11T20:26:18.465Z,15.67
2018-12-11T20:28:46.791Z,18.80
2018-12-11T20:31:15.037Z,15.57
2018-12-11T20:33:43.275Z,16.00
2018-12-11T20:36:11.543Z,16.93
2018-12-11T20:38:39.736Z,14.23
2018-12-11T20:41:08.115Z,17.40
2018-12-11T20:43:36.735Z,10.97
2018-12-11T20:46:05.081Z,8.40
2018-12-11T20:48:33.590Z,10.97
2018-12-11T20:51:01.826Z,14.50
2018-12-11T20:53:30.113Z,14.00
2018-12-11T20:55:58.497Z,10.77
2018-12-11T20:58:26.755Z,11.63
2018-12-11T21:00:55.275Z,14.30
2018-12-11T21:03:24.144Z,18.60
2018-12-11T21:05:52.412Z,16.50
2018-12-11T21:08:23.197Z,14.53
2018-12-11T21:10:51.401Z,16.43
2018-12-11T21:13:24.930Z,11.40
2018-12-11T21:15:53.353Z,11.70
2018-12-11T21:18:21.667Z,11.47
2018-12-11T21:20:50.009Z,11.47
2018-12-11T21:23:19.621Z,11.40
2018-12-11T21:25:48.446Z,12.27
2018-12-11T21:28:16.686Z,11.27
2018-12-11T21:30:44.893Z,13.60
2018-12-11T21:33:13.396Z,11.77
2018-12-11T21:35:42.358Z,16.13
2018-12-11T21:38:11.480Z,14.13
2018-12-11T21:40:39.695Z,10.37
2018-12-11T21:43:08.013Z,9.53
2018-12-11T21:45:36.314Z,10.90
2018-12-11T21:48:04.529Z,10.00
2018-12-11T21:50:32.691Z,11.80
2018-12-11T21:53:00.887Z,9.97
2018-12-11T21:55:29.177Z,11.60
2018-12-11T21:57:57.455Z,14.27
2018-12-11T22:00:26.611Z,14.53
2018-12-11T22:02:54.913Z,13.93
2018-12-11T22:05:24.006Z,16.40
2018-12-11T22:07:52.204Z,17.53
2018-12-11T22:10:21.003Z,11.80
2018-12-11T22:12:50.039Z,10.50
2018-12-11T22:15:18.486Z,9.90
2018-12-11T22:17:46.702Z,10.40
2018-12-11T22:20:15.172Z,9.27
2018-12-11T22:22:43.377Z,11.40
2018-12-11T22:25:12.205Z,12.13
2018-12-11T22:27:40.388Z,12.00
2018-12-11T22:30:08.707Z,10.93
2018-12-11T22:32:38.074Z,10.40
2018-12-11T22:35:06.385Z,8.33
2018-12-11T22:37:34.669Z,13.30
2018-12-11T22:40:03.099Z,11.80
2018-12-11T22:42:31.369Z,11.37
2018-12-11T22:44:59.524Z,13.40
2018-12-11T22:47:27.845Z,12.77
2018-12-11T22:49:55.991Z,9.07
2018-12-11T22:52:24.247Z,10.13
2018-12-11T22:54:52.459Z,9.30
2018-12-11T22:57:20.641Z,11.17
2018-12-11T22:59:48.833Z,10.00
2018-12-11T23:02:18.908Z,9.53
2018-12-11T23:04:47.549Z,8.03
2018-12-11T23:07:15.790Z,8.13
2018-12-11T23:09:45.166Z,10.23
2018-12-11T23:12:13.938Z,10.30
2018-12-11T23:14:42.267Z,11.93
2018-12-11T23:17:10.423Z,14.20
2018-12-11T23:19:39.074Z,8.40
2018-12-11T23:22:07.286Z,9.97
2018-12-11T23:24:35.456Z,12.33
2018-12-11T23:27:04.729Z,10.70
2018-12-11T23:29:33.025Z,7.97
2018-12-11T23:32:01.335Z,7.73
2018-12-11T23:34:29.877Z,7.40
2018-12-11T23:36:58.067Z,10.03
2018-12-11T23:39:26.340Z,8.93
2018-12-11T23:41:54.979Z,12.27
2018-12-11T23:44:23.177Z,11.03
2018-12-11T23:46:51.437Z,10.27
2018-12-11T23:49:19.700Z,8.27
2018-12-11T23:51:47.883Z,12.70
2018-12-11T23:54:16.129Z,10.70
2018-12-11T23:56:44.655Z,10.23
2018-12-11T23:59:12.876Z,8.80
